Time;durP1;ratioP1;P1;durP2;ratioP2;P2;SDS_P1;SDS_P2;PMS_P1;PMS_P2;Temp;Humidity;BMP_temperature;BMP_pressure;BME280_temperature;BME280_humidity;BME280_pressure;Samples;Min_cycle;Max_cycle;Signal;HPM_P1;HPM_P2
2023/12/15 00:01:19;;;;;;;17.33;9.50;;;7.20;99.90;;;;;;5036272;28;20033;-78
2023/12/15 00:03:45;;;;;;;21.13;10.00;;;7.20;99.90;;;;;;5036412;28;20530;-78
2023/12/15 00:06:11;;;;;;;16.83;9.13;;;7.20;99.90;;;;;;5054404;28;20048;-78
2023/12/15 00:08:36;;;;;;;18.23;9.10;;;7.20;99.90;;;;;;5054330;28;20041;-78
2023/12/15 00:11:03;;;;;;;16.90;8.70;;;7.20;99.90;;;;;;5036373;28;20112;-78
2023/12/15 00:13:28;;;;;;;16.53;8.70;;;7.20;99.90;;;;;;5054098;28;20128;-78
2023/12/15 00:15:54;;;;;;;16.50;9.77;;;7.20;99.90;;;;;;5036477;28;20481;-78
2023/12/15 00:18:20;;;;;;;17.07;9.90;;;7.20;99.90;;;;;;5054191;28;20123;-78
2023/12/15 00:20:46;;;;;;;19.83;9.83;;;7.20;99.90;;;;;;5036513;28;20036;-78
2023/12/15 00:23:13;;;;;;;18.40;9.80;;;7.30;99.90;;;;;;5053972;28;20033;-78
2023/12/15 00:25:38;;;;;;;16.47;9.30;;;7.20;99.90;;;;;;5036279;28;20420;-79
2023/12/15 00:28:04;;;;;;;15.70;9.17;;;7.30;99.90;;;;;;5036395;28;20033;-78
2023/12/15 00:30:30;;;;;;;17.23;9.70;;;7.30;99.90;;;;;;5035634;28;20091;-78
2023/12/15 00:32:55;;;;;;;18.67;10.30;;;7.30;99.90;;;;;;5036116;28;20031;-78
2023/12/15 00:35:21;;;;;;;16.30;10.33;;;7.30;99.90;;;;;;5036096;28;20068;-78
2023/12/15 00:37:46;;;;;;;17.53;10.63;;;7.30;99.90;;;;;;5036416;28;20116;-77
2023/12/15 00:40:12;;;;;;;18.43;10.60;;;7.40;99.90;;;;;;5053816;28;20029;-77
2023/12/15 00:42:38;;;;;;;18.30;10.30;;;7.30;99.90;;;;;;5053446;28;20061;-77
2023/12/15 00:45:04;;;;;;;21.50;10.83;;;7.30;99.90;;;;;;5036020;28;20032;-78
2023/12/15 00:47:29;;;;;;;20.63;9.77;;;7.30;99.90;;;;;;5054092;28;20029;-78
2023/12/15 00:49:55;;;;;;;25.57;11.37;;;7.30;99.90;;;;;;5053586;28;20091;-78
2023/12/15 00:52:21;;;;;;;24.33;12.77;;;7.40;99.90;;;;;;5053833;28;20037;-78
2023/12/15 00:54:46;;;;;;;25.90;12.77;;;7.40;99.90;;;;;;5053662;28;20033;-78
2023/12/15 00:57:12;;;;;;;26.40;14.60;;;7.30;99.90;;;;;;5035651;28;20036;-78
2023/12/15 00:59:38;;;;;;;25.33;14.93;;;7.30;99.90;;;;;;5053109;28;20068;-78
2023/12/15 01:02:05;;;;;;;28.33;15.50;;;7.40;99.90;;;;;;5052419;28;20025;-78
2023/12/15 01:04:32;;;;;;;25.83;14.27;;;7.40;99.90;;;;;;5052206;28;20037;-78
2023/12/15 01:06:58;;;;;;;31.93;15.87;;;7.30;99.90;;;;;;5035475;28;20484;-78
2023/12/15 01:09:24;;;;;;;29.60;16.70;;;7.30;99.90;;;;;;5035305;28;20029;-77
2023/12/15 01:11:50;;;;;;;33.17;19.43;;;7.30;99.90;;;;;;5053017;28;20041;-77
2023/12/15 01:14:16;;;;;;;30.47;18.97;;;7.30;99.90;;;;;;5053090;28;20040;-78
2023/12/15 01:16:49;;;;;;;40.50;22.40;;;7.30;99.90;;;;;;5053100;28;20040;-78
2023/12/15 01:19:15;;;;;;;28.87;19.17;;;7.30;99.90;;;;;;5053353;28;20040;-78
2023/12/15 01:21:41;;;;;;;33.53;19.00;;;7.30;99.90;;;;;;5053013;28;20112;-78
2023/12/15 01:24:06;;;;;;;31.83;19.53;;;7.30;99.90;;;;;;5053134;28;20445;-78
2023/12/15 01:26:32;;;;;;;33.27;21.50;;;7.30;99.90;;;;;;5053140;28;20036;-77
2023/12/15 01:28:57;;;;;;;33.53;19.87;;;7.30;99.90;;;;;;5052836;28;20408;-78
2023/12/15 01:31:23;;;;;;;37.23;22.97;;;7.30;99.90;;;;;;5052890;28;20420;-78
2023/12/15 01:33:49;;;;;;;38.07;22.63;;;7.30;99.90;;;;;;5052723;28;20044;-78
2023/12/15 01:36:16;;;;;;;38.23;21.97;;;7.30;99.90;;;;;;5052868;28;20450;-77
2023/12/15 01:38:42;;;;;;;34.43;21.43;;;7.30;99.90;;;;;;5052983;28;20029;-78
2023/12/15 01:41:07;;;;;;;38.27;22.97;;;7.30;99.90;;;;;;5052691;28;20048;-78
2023/12/15 01:43:33;;;;;;;35.90;22.40;;;7.30;99.90;;;;;;5052645;28;20033;-77
2023/12/15 01:45:59;;;;;;;39.13;24.00;;;7.30;99.90;;;;;;5052660;28;20339;-78
2023/12/15 01:48:24;;;;;;;43.73;24.07;;;7.30;99.90;;;;;;5052773;28;20048;-78
2023/12/15 01:50:50;;;;;;;42.13;23.77;;;7.30;99.90;;;;;;5035068;28;20492;-77
2023/12/15 01:53:16;;;;;;;43.17;24.20;;;7.30;99.90;;;;;;5051486;28;20029;-77
2023/12/15 01:55:42;;;;;;;40.83;25.03;;;7.30;99.90;;;;;;5034853;28;20040;-77
2023/12/15 01:58:10;;;;;;;40.33;24.70;;;7.30;99.90;;;;;;5052607;28;20037;-77
2023/12/15 02:00:36;;;;;;;39.13;24.37;;;7.30;99.90;;;;;;5052813;28;20481;-77
2023/12/15 02:03:02;;;;;;;44.97;26.67;;;7.30;99.90;;;;;;5052723;28;20033;-77
2023/12/15 02:05:28;;;;;;;44.37;25.00;;;7.30;99.90;;;;;;5052807;28;20041;-77
2023/12/15 02:07:53;;;;;;;42.27;25.93;;;7.40;99.90;;;;;;5051170;28;20033;-78
2023/12/15 02:10:19;;;;;;;42.87;24.83;;;7.40;99.90;;;;;;5052515;28;20478;-78
2023/12/15 02:12:45;;;;;;;40.03;22.57;;;7.30;99.90;;;;;;5052772;28;20049;-77
2023/12/15 02:15:11;;;;;;;41.33;26.53;;;7.40;99.90;;;;;;5034390;28;20037;-78
2023/12/15 02:17:37;;;;;;;45.20;25.70;;;7.40;99.90;;;;;;5034300;28;20029;-77
2023/12/15 02:20:03;;;;;;;51.40;28.00;;;7.40;99.90;;;;;;5052552;28;20103;-78
2023/12/15 02:22:29;;;;;;;43.57;26.57;;;7.40;99.90;;;;;;5053000;28;20060;-78
2023/12/15 02:24:54;;;;;;;49.23;26.60;;;7.40;99.90;;;;;;5034457;28;20033;-77
2023/12/15 02:27:20;;;;;;;46.00;26.33;;;7.40;99.90;;;;;;5034149;28;20033;-78
2023/12/15 02:29:46;;;;;;;52.53;28.13;;;7.40;99.90;;;;;;5052063;28;20041;-78
2023/12/15 02:32:11;;;;;;;52.73;30.03;;;7.40;99.90;;;;;;5034531;28;20032;-78
2023/12/15 02:34:37;;;;;;;55.63;30.53;;;7.50;99.90;;;;;;5034552;28;20025;-78
2023/12/15 02:37:03;;;;;;;54.27;28.87;;;7.40;99.90;;;;;;5034254;28;20485;-78
2023/12/15 02:39:29;;;;;;;55.27;28.17;;;7.40;99.90;;;;;;5052106;28;20037;-78
2023/12/15 02:41:54;;;;;;;50.83;26.40;;;7.50;99.90;;;;;;5051865;28;20067;-78
2023/12/15 02:44:20;;;;;;;52.27;28.10;;;7.40;99.90;;;;;;5034461;28;20037;-78
2023/12/15 02:46:46;;;;;;;41.57;23.83;;;7.50;99.90;;;;;;5052277;28;20033;-77
2023/12/15 02:49:12;;;;;;;58.90;30.73;;;7.50;99.90;;;;;;5052031;28;20036;-77
2023/12/15 02:51:38;;;;;;;49.30;27.07;;;7.50;99.90;;;;;;5051984;28;20481;-78
2023/12/15 02:54:04;;;;;;;54.53;30.17;;;7.50;99.90;;;;;;5052998;28;20036;-78
2023/12/15 02:56:29;;;;;;;58.10;32.33;;;7.50;99.90;;;;;;5055787;28;20435;-78
2023/12/15 02:58:55;;;;;;;62.17;32.80;;;7.50;99.90;;;;;;5056115;28;20187;-78
2023/12/15 03:01:21;;;;;;;58.97;31.73;;;7.50;99.90;;;;;;5055842;28;20111;-78
2023/12/15 03:03:47;;;;;;;62.67;31.60;;;7.50;99.90;;;;;;5055823;28;20061;-77
2023/12/15 03:06:13;;;;;;;63.87;32.00;;;7.50;99.90;;;;;;5055779;28;20033;-78
2023/12/15 03:08:39;;;;;;;57.93;29.90;;;7.50;99.90;;;;;;5055418;28;20037;-78
2023/12/15 03:11:04;;;;;;;58.97;31.73;;;7.50;99.90;;;;;;5037511;28;20587;-76
2023/12/15 03:13:30;;;;;;;60.93;31.77;;;7.50;99.90;;;;;;5055587;28;20033;-77
2023/12/15 03:16:04;;;;;;;59.10;30.27;;;7.60;99.90;;;;;;5055416;28;20038;-78
2023/12/15 03:18:30;;;;;;;60.75;31.27;;;7.50;99.90;;;;;;5055354;28;20044;-78
2023/12/15 03:20:56;;;;;;;66.70;31.10;;;7.60;99.90;;;;;;5055332;28;20044;-77
2023/12/15 03:23:22;;;;;;;60.97;31.73;;;7.60;99.90;;;;;;5055183;28;20041;-77
2023/12/15 03:25:47;;;;;;;61.27;31.27;;;7.60;99.90;;;;;;5037690;28;20079;-77
2023/12/15 03:28:14;;;;;;;60.30;30.20;;;7.60;99.90;;;;;;5037278;28;20098;-77
2023/12/15 03:30:40;;;;;;;64.70;32.47;;;7.70;99.90;;;;;;5055238;28;20036;-78
2023/12/15 03:33:06;;;;;;;68.67;31.63;;;7.60;99.90;;;;;;5055258;28;20041;-78
2023/12/15 03:35:32;;;;;;;63.33;31.20;;;7.60;99.90;;;;;;5055170;28;20037;-78
2023/12/15 03:37:57;;;;;;;64.90;34.20;;;7.60;99.90;;;;;;5036640;28;20178;-78
2023/12/15 03:40:23;;;;;;;70.37;33.77;;;7.60;99.90;;;;;;5055178;28;20045;-78
2023/12/15 03:42:49;;;;;;;61.17;32.10;;;7.60;99.90;;;;;;5054672;28;20066;-78
2023/12/15 03:45:15;;;;;;;66.20;31.67;;;7.70;99.90;;;;;;5054958;28;20033;-78
2023/12/15 03:47:41;;;;;;;64.90;30.10;;;7.60;99.90;;;;;;5055044;28;20051;-78
2023/12/15 03:50:07;;;;;;;56.90;29.70;;;7.70;99.90;;;;;;5055104;28;20051;-78
2023/12/15 03:52:33;;;;;;;63.80;29.70;;;7.70;99.90;;;;;;5054366;28;20037;-78
2023/12/15 03:54:58;;;;;;;65.87;32.73;;;7.70;99.90;;;;;;5054866;28;20350;-77
2023/12/15 03:57:24;;;;;;;59.27;29.90;;;7.70;99.90;;;;;;5054699;28;20095;-77
2023/12/15 03:59:50;;;;;;;67.63;31.83;;;7.70;99.90;;;;;;5054913;28;20433;-77
2023/12/15 04:02:15;;;;;;;62.37;31.23;;;7.70;99.90;;;;;;5036692;28;20063;-77
2023/12/15 04:04:44;;;;;;;63.27;31.07;;;7.70;99.90;;;;;;5054341;28;20033;-78
2023/12/15 04:07:10;;;;;;;62.03;29.47;;;7.80;99.90;;;;;;5052290;28;20036;-78
2023/12/15 04:09:35;;;;;;;74.73;31.70;;;7.80;99.90;;;;;;5036769;28;20029;-78
2023/12/15 04:12:03;;;;;;;61.60;30.93;;;7.80;99.90;;;;;;5036499;28;20057;-78
2023/12/15 04:14:29;;;;;;;62.30;30.03;;;7.80;99.90;;;;;;5036463;28;20025;-79
2023/12/15 04:16:54;;;;;;;72.93;32.33;;;7.80;99.90;;;;;;5036260;28;20021;-78
2023/12/15 04:19:20;;;;;;;63.87;30.10;;;7.80;99.90;;;;;;5054284;28;20081;-78
2023/12/15 04:21:46;;;;;;;72.97;32.30;;;7.80;99.90;;;;;;5036045;28;20358;-78
2023/12/15 04:24:11;;;;;;;63.03;32.57;;;7.80;99.90;;;;;;5053909;28;20040;-78
2023/12/15 04:26:37;;;;;;;57.73;29.33;;;7.80;99.90;;;;;;5054248;28;20491;-78
2023/12/15 04:29:03;;;;;;;57.40;28.50;;;7.90;99.90;;;;;;5051042;28;20037;-78
2023/12/15 04:31:28;;;;;;;66.30;31.57;;;7.90;99.90;;;;;;5051480;28;20032;-79
2023/12/15 04:33:54;;;;;;;67.70;32.80;;;7.90;99.90;;;;;;5053794;28;20087;-79
2023/12/15 04:36:21;;;;;;;73.33;33.80;;;7.90;99.90;;;;;;5035837;28;20392;-78
2023/12/15 04:38:47;;;;;;;68.90;32.07;;;7.90;99.90;;;;;;5054205;28;20069;-79
2023/12/15 04:41:20;;;;;;;71.30;34.10;;;7.90;99.90;;;;;;5035553;28;20045;-79
2023/12/15 04:43:46;;;;;;;65.30;33.37;;;7.90;99.90;;;;;;5053903;28;20048;-78
2023/12/15 04:46:11;;;;;;;64.57;31.17;;;7.90;99.90;;;;;;5053759;28;20037;-79
2023/12/15 04:48:38;;;;;;;60.00;30.27;;;7.90;99.90;;;;;;5053817;28;20434;-78
2023/12/15 04:51:03;;;;;;;72.17;32.77;;;8.00;99.90;;;;;;5053347;28;20040;-78
2023/12/15 04:53:29;;;;;;;63.03;31.43;;;7.90;99.90;;;;;;5053577;28;20048;-78
2023/12/15 04:55:55;;;;;;;66.47;31.33;;;7.90;99.90;;;;;;5052112;28;20033;-79
2023/12/15 04:58:20;;;;;;;65.13;31.73;;;7.90;99.90;;;;;;5053600;28;20499;-78
2023/12/15 05:00:46;;;;;;;62.33;33.33;;;7.90;99.90;;;;;;5035640;28;20059;-79
2023/12/15 05:03:11;;;;;;;65.10;32.23;;;8.00;99.90;;;;;;5052881;28;20033;-79
2023/12/15 05:05:37;;;;;;;65.43;31.93;;;8.00;99.90;;;;;;5053163;28;20033;-78
2023/12/15 05:08:03;;;;;;;60.10;31.43;;;8.00;99.90;;;;;;5052008;28;20049;-78
2023/12/15 05:10:29;;;;;;;60.50;29.97;;;8.00;99.90;;;;;;5053753;28;20044;-77
2023/12/15 05:12:54;;;;;;;66.73;32.67;;;8.00;99.90;;;;;;5053547;28;20512;-78
2023/12/15 05:15:20;;;;;;;65.87;32.50;;;8.00;99.90;;;;;;5053215;28;20400;-77
2023/12/15 05:17:45;;;;;;;61.83;32.63;;;8.00;99.90;;;;;;5052728;28;20040;-77
2023/12/15 05:20:11;;;;;;;57.43;29.30;;;8.10;99.90;;;;;;5035013;28;20115;-77
2023/12/15 05:22:37;;;;;;;61.67;32.87;;;8.00;99.90;;;;;;5035238;28;20033;-78
2023/12/15 05:25:02;;;;;;;64.93;31.07;;;8.10;99.90;;;;;;5035249;28;20476;-78
2023/12/15 05:27:28;;;;;;;54.20;30.27;;;8.10;99.90;;;;;;5035209;28;20140;-78
2023/12/15 05:29:54;;;;;;;59.07;30.83;;;8.10;99.90;;;;;;5053006;28;20069;-78
2023/12/15 05:32:19;;;;;;;55.87;30.73;;;8.10;99.90;;;;;;5053025;28;20110;-78
2023/12/15 05:34:45;;;;;;;53.33;29.13;;;8.10;99.90;;;;;;5052811;28;20507;-78
2023/12/15 05:37:12;;;;;;;54.70;30.87;;;8.10;99.90;;;;;;5053103;28;20410;-78
2023/12/15 05:39:42;;;;;;;54.13;28.87;;;8.20;99.90;;;;;;5052912;28;20040;-78
2023/12/15 05:42:07;;;;;;;56.47;28.97;;;8.20;99.90;;;;;;5052361;28;20435;-78
2023/12/15 05:44:33;;;;;;;54.43;29.43;;;8.20;99.90;;;;;;5052563;28;20128;-78
2023/12/15 05:46:59;;;;;;;57.27;29.33;;;8.20;99.90;;;;;;5045193;28;20037;-78
2023/12/15 05:49:24;;;;;;;59.30;29.87;;;8.20;99.90;;;;;;5032810;28;20037;-78
2023/12/15 05:51:50;;;;;;;56.77;30.43;;;8.20;99.90;;;;;;5034003;28;20048;-78
2023/12/15 05:54:16;;;;;;;56.67;28.93;;;8.20;99.90;;;;;;5051445;28;20040;-78
2023/12/15 05:56:41;;;;;;;55.80;28.60;;;8.20;99.90;;;;;;5052765;28;20123;-78
2023/12/15 05:59:08;;;;;;;60.40;30.27;;;8.20;99.90;;;;;;5035071;28;20036;-78
2023/12/15 06:01:34;;;;;;;62.50;29.80;;;8.30;99.90;;;;;;5052508;28;20121;-78
2023/12/15 06:03:59;;;;;;;54.80;26.67;;;8.30;99.90;;;;;;5052771;28;20461;-78
2023/12/15 06:06:25;;;;;;;56.90;27.40;;;8.30;99.90;;;;;;5053383;28;20036;-78
2023/12/15 06:08:51;;;;;;;55.40;28.43;;;8.30;99.90;;;;;;5052015;28;20052;-78
2023/12/15 06:11:17;;;;;;;54.70;27.63;;;8.30;99.90;;;;;;5052123;28;20135;-78
2023/12/15 06:13:43;;;;;;;57.53;27.77;;;8.30;99.90;;;;;;5044894;28;20029;-78
2023/12/15 06:16:17;;;;;;;48.93;28.70;;;8.30;99.90;;;;;;5035182;28;20501;-79
2023/12/15 06:18:43;;;;;;;57.83;28.53;;;8.40;99.90;;;;;;5052594;28;20068;-78
2023/12/15 06:21:08;;;;;;;58.53;30.43;;;8.40;99.90;;;;;;5052547;28;20069;-78
2023/12/15 06:23:34;;;;;;;49.77;27.83;;;8.40;99.90;;;;;;5052645;28;20396;-78
2023/12/15 06:25:59;;;;;;;57.03;29.90;;;8.40;99.90;;;;;;5042558;28;20125;-78
2023/12/15 06:28:25;;;;;;;60.40;30.23;;;8.40;99.90;;;;;;5037378;28;20041;-78
2023/12/15 06:30:50;;;;;;;63.70;30.20;;;8.40;99.90;;;;;;5052398;28;20497;-78
2023/12/15 06:33:16;;;;;;;55.17;29.27;;;8.40;99.90;;;;;;5044879;28;20110;-78
2023/12/15 06:35:42;;;;;;;58.63;30.03;;;8.40;99.90;;;;;;5036251;28;20067;-78
2023/12/15 06:38:07;;;;;;;53.17;28.93;;;8.40;99.90;;;;;;5038841;28;20037;-82
2023/12/15 06:40:33;;;;;;;64.13;30.33;;;8.40;99.90;;;;;;5034842;28;20039;-82
2023/12/15 06:42:59;;;;;;;60.67;30.23;;;8.40;99.90;;;;;;5035679;28;20053;-82
2023/12/15 06:45:24;;;;;;;58.60;28.90;;;8.30;99.90;;;;;;5018088;28;20462;-82
2023/12/15 06:47:50;;;;;;;49.33;26.13;;;8.40;99.90;;;;;;5036156;28;20041;-82
2023/12/15 06:50:16;;;;;;;57.33;25.17;;;8.40;99.90;;;;;;5034684;28;20036;-82
2023/12/15 06:52:42;;;;;;;52.40;27.97;;;8.40;99.90;;;;;;5036388;28;20029;-81
2023/12/15 06:55:08;;;;;;;57.70;29.17;;;8.30;99.90;;;;;;5036193;28;20037;-82
2023/12/15 06:57:33;;;;;;;59.17;29.97;;;8.40;99.90;;;;;;5052039;28;20109;-82
2023/12/15 06:59:59;;;;;;;56.90;29.20;;;8.30;99.90;;;;;;5037870;28;20032;-82
2023/12/15 07:02:25;;;;;;;52.20;26.70;;;8.30;99.90;;;;;;5055862;28;20033;-82
2023/12/15 07:04:50;;;;;;;55.37;27.33;;;8.40;99.90;;;;;;5037926;28;20040;-82
2023/12/15 07:07:16;;;;;;;54.70;27.70;;;8.30;99.90;;;;;;5055634;28;20030;-82
2023/12/15 07:09:42;;;;;;;52.43;26.90;;;8.30;99.90;;;;;;5037744;28;20033;-82
2023/12/15 07:12:08;;;;;;;53.77;26.67;;;8.30;99.90;;;;;;5055447;28;20118;-82
2023/12/15 07:14:34;;;;;;;49.53;26.27;;;8.40;99.90;;;;;;5055337;28;20033;-82
2023/12/15 07:17:00;;;;;;;62.00;27.37;;;8.40;99.90;;;;;;5037571;28;20437;-82
2023/12/15 07:19:25;;;;;;;52.47;28.37;;;8.40;99.90;;;;;;5054576;28;20051;-82
2023/12/15 07:21:51;;;;;;;49.53;26.03;;;8.40;99.90;;;;;;5054950;28;20064;-82
2023/12/15 07:24:16;;;;;;;61.10;28.70;;;8.40;99.90;;;;;;5055257;28;20037;-82
2023/12/15 07:26:42;;;;;;;53.23;28.17;;;8.40;99.90;;;;;;5055149;28;20077;-82
2023/12/15 07:29:08;;;;;;;52.40;27.63;;;8.40;99.90;;;;;;5054778;28;20143;-82
2023/12/15 07:31:34;;;;;;;54.97;28.87;;;8.40;99.90;;;;;;5055081;28;20045;-78
2023/12/15 07:33:59;;;;;;;48.47;27.43;;;8.40;99.90;;;;;;5036912;28;20124;-80
2023/12/15 07:36:25;;;;;;;54.73;27.07;;;8.40;99.90;;;;;;5055273;28;20075;-80
2023/12/15 07:38:51;;;;;;;57.43;27.43;;;8.40;99.90;;;;;;5055197;28;20497;-79
2023/12/15 07:41:16;;;;;;;48.57;26.57;;;8.40;99.90;;;;;;5056473;28;20025;-79
2023/12/15 07:43:42;;;;;;;52.07;25.90;;;8.40;99.90;;;;;;5074761;28;20051;-79
2023/12/15 07:46:18;;;;;;;49.43;25.53;;;8.40;99.90;;;;;;5074882;28;20377;-79
2023/12/15 07:48:44;;;;;;;57.10;25.40;;;8.40;99.90;;;;;;5056908;28;20032;-80
2023/12/15 07:51:19;;;;;;;46.60;24.07;;;8.40;99.90;;;;;;5075062;28;20040;-79
2023/12/15 07:53:48;;;;;;;50.33;25.70;;;8.40;99.90;;;;;;5074659;28;20047;-80
2023/12/15 07:56:25;;;;;;;47.10;24.83;;;8.40;99.90;;;;;;5056550;28;20074;-79
2023/12/15 07:58:51;;;;;;;44.77;24.30;;;8.50;99.90;;;;;;5056843;28;20024;-80
2023/12/15 08:01:21;;;;;;;38.70;22.70;;;8.50;99.90;;;;;;5075037;28;20033;-79
2023/12/15 08:03:48;;;;;;;45.53;24.90;;;8.50;99.90;;;;;;5056891;28;20102;-79
2023/12/15 08:06:15;;;;;;;53.60;27.90;;;8.50;99.90;;;;;;5074387;28;20025;-80
2023/12/15 08:08:46;;;;;;;43.80;23.97;;;8.50;99.90;;;;;;5074279;28;20434;-79
2023/12/15 08:11:13;;;;;;;49.80;25.47;;;8.50;99.90;;;;;;5074423;28;20053;-79
2023/12/15 08:13:40;;;;;;;45.07;24.30;;;8.50;99.90;;;;;;5074374;28;20499;-81
2023/12/15 08:16:07;;;;;;;57.93;27.73;;;8.50;99.90;;;;;;5056422;28;20447;-79
2023/12/15 08:18:33;;;;;;;56.93;27.37;;;8.50;99.90;;;;;;5074367;28;20079;-79
2023/12/15 08:21:00;;;;;;;54.60;26.47;;;8.60;99.90;;;;;;5074208;28;20508;-80
2023/12/15 08:23:26;;;;;;;45.17;24.90;;;8.50;99.90;;;;;;5074120;28;20064;-80
2023/12/15 08:25:52;;;;;;;46.40;25.93;;;8.60;99.90;;;;;;5056478;28;20082;-79
2023/12/15 08:28:20;;;;;;;46.70;25.00;;;8.50;99.90;;;;;;5055692;28;20086;-80
2023/12/15 08:30:46;;;;;;;47.67;26.23;;;8.60;99.90;;;;;;5074052;28;20029;-80
2023/12/15 08:33:12;;;;;;;49.50;25.27;;;8.60;99.90;;;;;;5073974;28;20107;-81
2023/12/15 08:35:38;;;;;;;46.23;25.37;;;8.50;99.90;;;;;;5056007;28;20439;-80
2023/12/15 08:38:04;;;;;;;47.23;26.10;;;8.60;99.90;;;;;;5073700;28;20059;-80
2023/12/15 08:40:29;;;;;;;53.73;25.17;;;8.60;99.90;;;;;;5073872;28;20040;-80
2023/12/15 08:43:04;;;;;;;49.20;24.50;;;8.60;99.90;;;;;;5040426;28;20421;-82
2023/12/15 08:45:30;;;;;;;46.30;23.87;;;8.60;99.90;;;;;;5053735;28;20397;-79
2023/12/15 08:47:56;;;;;;;39.70;23.27;;;8.60;99.90;;;;;;5054160;28;20033;-80
2023/12/15 08:50:24;;;;;;;44.83;25.20;;;8.60;99.90;;;;;;5035840;28;20025;-80
2023/12/15 08:52:50;;;;;;;49.33;24.93;;;8.60;99.90;;;;;;5035675;28;20040;-80
2023/12/15 08:55:17;;;;;;;46.73;24.37;;;8.60;99.90;;;;;;5035943;28;20032;-78
2023/12/15 08:57:43;;;;;;;48.57;25.30;;;8.60;99.90;;;;;;5053421;28;20218;-78
2023/12/15 09:00:09;;;;;;;41.63;23.67;;;8.60;99.90;;;;;;5035877;28;20086;-79
2023/12/15 09:02:41;;;;;;;41.97;23.80;;;8.60;99.90;;;;;;5035890;28;20029;-79
2023/12/15 09:05:06;;;;;;;46.60;24.00;;;8.60;99.90;;;;;;5035375;28;20037;-79
2023/12/15 09:07:32;;;;;;;50.13;24.30;;;8.60;99.90;;;;;;5035907;28;20036;-79
2023/12/15 09:09:58;;;;;;;41.97;23.23;;;8.70;99.90;;;;;;5053983;28;20032;-79
2023/12/15 09:12:24;;;;;;;46.33;23.77;;;8.70;99.90;;;;;;5035479;28;20033;-79
2023/12/15 09:14:50;;;;;;;49.13;25.00;;;8.80;99.90;;;;;;5035109;28;20039;-79
2023/12/15 09:17:15;;;;;;;50.33;23.60;;;8.80;99.90;;;;;;5053315;28;20506;-79
2023/12/15 09:19:42;;;;;;;41.83;24.00;;;8.80;99.90;;;;;;5035279;28;20528;-79
2023/12/15 09:22:08;;;;;;;38.83;23.30;;;8.90;99.90;;;;;;5035599;28;20132;-79
2023/12/15 09:24:34;;;;;;;41.23;23.60;;;8.80;99.90;;;;;;5053069;28;20064;-79
2023/12/15 09:27:00;;;;;;;44.87;22.57;;;8.90;99.90;;;;;;5053193;28;20036;-79
2023/12/15 09:29:25;;;;;;;40.33;22.50;;;9.00;99.90;;;;;;5035247;28;20079;-80
2023/12/15 09:31:51;;;;;;;40.40;21.80;;;8.90;99.90;;;;;;5053137;28;20113;-80
2023/12/15 09:34:18;;;;;;;38.87;20.93;;;8.90;99.90;;;;;;5035063;28;20060;-80
2023/12/15 09:36:44;;;;;;;38.83;20.97;;;9.00;99.90;;;;;;5052890;28;20025;-80
2023/12/15 09:39:09;;;;;;;33.37;20.13;;;8.90;99.90;;;;;;5052493;28;20059;-79
2023/12/15 09:41:35;;;;;;;38.47;21.13;;;8.90;99.90;;;;;;5039421;28;20396;-80
2023/12/15 09:44:01;;;;;;;37.00;20.87;;;9.00;99.90;;;;;;5054885;28;20028;-80
2023/12/15 09:46:28;;;;;;;36.53;19.43;;;9.00;99.90;;;;;;5073122;28;20043;-80
2023/12/15 09:48:53;;;;;;;31.83;20.03;;;9.00;99.90;;;;;;5054615;28;20493;-80
2023/12/15 09:51:25;;;;;;;38.97;19.33;;;9.10;99.90;;;;;;5072936;28;20035;-80
2023/12/15 09:53:51;;;;;;;37.17;19.77;;;9.10;99.90;;;;;;5072723;28;20041;-79
2023/12/15 09:56:18;;;;;;;34.30;18.07;;;9.10;99.90;;;;;;5072981;28;20037;-79
2023/12/15 09:58:44;;;;;;;36.43;19.03;;;9.20;99.90;;;;;;5072907;28;20137;-80
2023/12/15 10:01:13;;;;;;;35.97;19.10;;;9.20;99.90;;;;;;5072871;28;20484;-80
2023/12/15 10:03:39;;;;;;;34.87;18.70;;;9.20;99.90;;;;;;5072806;28;20035;-79
2023/12/15 10:06:05;;;;;;;31.70;17.03;;;9.30;99.90;;;;;;5076696;28;20063;-80
2023/12/15 10:08:45;;;;;;;36.27;17.00;;;9.30;99.90;;;;;;5077097;28;20090;-79
2023/12/15 10:11:11;;;;;;;36.70;16.73;;;9.30;99.90;;;;;;5077344;28;20419;-80
2023/12/15 10:13:41;;;;;;;32.93;16.40;;;9.30;99.90;;;;;;5077080;28;20446;-79
2023/12/15 10:16:12;;;;;;;29.90;15.07;;;9.40;99.90;;;;;;5059405;28;20047;-80
2023/12/15 10:18:39;;;;;;;31.33;15.37;;;9.40;99.90;;;;;;5077610;28;20029;-80
2023/12/15 10:21:17;;;;;;;29.40;16.27;;;9.40;99.90;;;;;;5077092;28;20138;-82
2023/12/15 10:23:43;;;;;;;31.97;15.30;;;9.40;99.90;;;;;;5059542;28;20136;-80
2023/12/15 10:26:09;;;;;;;32.80;15.10;;;9.50;99.90;;;;;;5077296;28;20090;-80
2023/12/15 10:28:39;;;;;;;31.33;17.33;;;9.50;99.90;;;;;;5058082;28;20036;-80
2023/12/15 10:31:06;;;;;;;32.90;15.83;;;9.50;99.90;;;;;;5076393;28;20119;-78
2023/12/15 10:33:35;;;;;;;29.03;15.00;;;9.50;99.90;;;;;;5076326;28;20039;-77
2023/12/15 10:36:02;;;;;;;32.17;15.77;;;9.50;99.90;;;;;;5058092;28;20029;-79
2023/12/15 10:38:31;;;;;;;30.10;15.02;;;9.50;99.90;;;;;;5058249;28;20029;-79
2023/12/15 10:40:58;;;;;;;29.90;16.20;;;9.50;99.90;;;;;;5057965;28;20024;-79
2023/12/15 10:43:24;;;;;;;31.40;14.70;;;9.50;99.90;;;;;;5058367;28;20055;-79
2023/12/15 10:45:53;;;;;;;32.20;13.70;;;9.50;99.90;;;;;;5076112;28;20119;-79
2023/12/15 10:48:19;;;;;;;30.73;13.73;;;9.50;99.90;;;;;;5058002;28;20066;-79
2023/12/15 10:50:46;;;;;;;28.07;13.40;;;9.50;99.90;;;;;;5058173;28;20024;-80
2023/12/15 10:53:15;;;;;;;33.80;14.30;;;9.50;99.90;;;;;;5075564;28;20209;-79
2023/12/15 10:55:46;;;;;;;28.70;13.77;;;9.50;99.90;;;;;;5057486;28;20378;-79
2023/12/15 10:58:13;;;;;;;31.13;15.83;;;9.60;99.90;;;;;;5075670;28;20043;-79
2023/12/15 11:00:39;;;;;;;24.93;13.07;;;9.60;99.90;;;;;;5058073;28;20510;-79
2023/12/15 11:03:10;;;;;;;34.43;14.10;;;9.60;99.90;;;;;;5075555;28;20035;-79
2023/12/15 11:05:37;;;;;;;28.13;12.43;;;9.70;99.90;;;;;;5057674;28;20116;-79
2023/12/15 11:08:03;;;;;;;20.60;12.40;;;9.70;99.90;;;;;;5057322;28;20128;-79
2023/12/15 11:10:29;;;;;;;32.63;14.00;;;9.70;99.90;;;;;;5075918;28;20055;-78
2023/12/15 11:12:55;;;;;;;27.42;13.15;;;9.70;99.90;;;;;;5057679;28;20025;-79
2023/12/15 11:15:22;;;;;;;26.60;12.63;;;9.70;99.90;;;;;;5074739;28;20028;-79
2023/12/15 11:17:53;;;;;;;28.90;11.80;;;9.70;99.90;;;;;;5075857;28;20108;-78
2023/12/15 11:20:26;;;;;;;26.30;11.95;;;9.70;99.90;;;;;;5075512;28;20466;-78
2023/12/15 11:23:04;;;;;;;29.40;12.83;;;9.80;99.90;;;;;;5057723;28;20039;-79
2023/12/15 11:25:31;;;;;;;25.80;11.47;;;9.80;99.90;;;;;;5057853;28;20028;-79
2023/12/15 11:28:10;;;;;;;26.33;12.20;;;9.80;99.90;;;;;;5057031;28;20032;-77
2023/12/15 11:30:41;;;;;;;30.50;12.30;;;9.80;99.90;;;;;;5057933;28;20127;-78
2023/12/15 11:33:29;;;;;;;27.50;11.37;;;9.80;99.90;;;;;;5057036;28;20061;-78
2023/12/15 11:36:01;;;;;;;26.57;11.47;;;9.80;99.90;;;;;;5074693;28;20049;-79
2023/12/15 11:38:29;;;;;;;31.13;11.05;;;9.80;99.90;;;;;;5075381;28;20068;-79
2023/12/15 11:40:57;;;;;;;23.77;10.27;;;9.90;99.90;;;;;;5074832;28;20037;-79
2023/12/15 11:43:26;;;;;;;21.90;10.02;;;9.90;99.90;;;;;;5074847;28;20048;-79
2023/12/15 11:45:53;;;;;;;22.40;10.38;;;10.00;99.90;;;;;;5074999;28;20117;-80
2023/12/15 11:48:19;;;;;;;19.92;9.55;;;10.00;99.90;;;;;;5074919;28;20044;-79
2023/12/15 11:50:48;;;;;;;21.75;9.25;;;10.10;99.90;;;;;;5074941;28;20439;-79
2023/12/15 11:53:14;;;;;;;21.38;9.07;;;10.10;99.90;;;;;;5057222;28;20150;-80
2023/12/15 11:55:55;;;;;;;21.45;9.40;;;10.10;99.90;;;;;;5074722;28;20037;-80
2023/12/15 11:58:22;;;;;;;19.92;7.97;;;10.20;99.90;;;;;;5075179;28;20037;-81
2023/12/15 12:00:48;;;;;;;19.05;8.13;;;10.20;99.90;;;;;;5075057;28;20032;-80
2023/12/15 12:03:19;;;;;;;20.13;7.95;;;10.30;99.90;;;;;;5056668;28;20044;-81
2023/12/15 12:05:47;;;;;;;16.73;7.30;;;10.40;99.90;;;;;;5074707;28;20046;-81
2023/12/15 12:08:14;;;;;;;21.17;8.32;;;10.50;99.90;;;;;;5056504;28;20178;-79
2023/12/15 12:10:43;;;;;;;20.48;8.40;;;10.40;99.90;;;;;;5074683;28;20035;-80
2023/12/15 12:13:10;;;;;;;17.70;6.93;;;10.50;99.90;;;;;;5056684;28;20532;-79
2023/12/15 12:15:53;;;;;;;19.50;8.00;;;10.60;99.90;;;;;;5074495;28;20588;-80
2023/12/15 12:18:35;;;;;;;20.17;7.72;;;10.70;99.90;;;;;;5056761;28;20100;-78
2023/12/15 12:21:09;;;;;;;18.20;7.72;;;10.80;99.90;;;;;;5074572;28;20099;-81
2023/12/15 12:23:34;;;;;;;20.05;8.98;;;11.00;99.90;;;;;;5056728;28;20029;-80
2023/12/15 12:26:00;;;;;;;17.50;8.15;;;11.20;99.90;;;;;;5055894;28;20028;-81
2023/12/15 12:28:50;;;;;;;17.77;7.35;;;11.20;99.90;;;;;;5073708;28;20029;-80
2023/12/15 12:31:16;;;;;;;17.20;7.25;;;11.20;99.90;;;;;;5057149;28;20039;-80
2023/12/15 12:33:48;;;;;;;18.70;7.65;;;11.20;99.90;;;;;;5057668;28;20033;-80
2023/12/15 12:36:17;;;;;;;17.75;8.18;;;11.20;99.90;;;;;;5057784;28;20029;-80